Time;durP1;ratioP1;P1;durP2;ratioP2;P2;SDS_P1;SDS_P2;PMS_P1;PMS_P2;Temp;Humidity;BMP_temperature;BMP_pressure;BME280_temperature;BME280_humidity;BME280_pressure;Samples;Min_cycle;Max_cycle;Signal;HPM_P1;HPM_P2
2021/12/29 00:01:27;;;;;;;11.38;5.15;;;;;;;2.78;100.00;98825.91;5207546;28;20021;-81
2021/12/29 00:03:57;;;;;;;12.73;4.10;;;;;;;2.87;100.00;98845.38;5215473;28;20120;-81
2021/12/29 00:06:28;;;;;;;8.27;4.65;;;;;;;2.84;100.00;98845.50;5205873;28;20055;-81
2021/12/29 00:08:59;;;;;;;9.75;5.47;;;;;;;2.92;100.00;98856.38;5211942;28;20037;-81
2021/12/29 00:11:30;;;;;;;13.25;5.88;;;;;;;3.00;100.00;98857.00;5208362;28;20021;-81
2021/12/29 00:14:00;;;;;;;9.45;5.20;;;;;;;3.00;100.00;98864.75;5216867;28;20146;-81
2021/12/29 00:16:34;;;;;;;11.27;5.35;;;;;;;3.07;100.00;98859.31;5217123;28;20410;-81
2021/12/29 00:19:06;;;;;;;13.45;5.85;;;;;;;3.17;100.00;98854.69;5216728;28;20017;-81
2021/12/29 00:21:37;;;;;;;12.68;4.97;;;;;;;2.81;100.00;98853.31;5218816;28;20041;-81
2021/12/29 00:24:07;;;;;;;9.00;4.50;;;;;;;2.71;100.00;98855.34;5214991;28;20056;-81
2021/12/29 00:26:37;;;;;;;11.52;5.03;;;;;;;2.59;100.00;98858.31;5217634;28;20029;-81
2021/12/29 00:29:08;;;;;;;10.65;5.28;;;;;;;2.61;100.00;98863.41;5213695;28;20060;-81
2021/12/29 00:31:41;;;;;;;9.63;4.93;;;;;;;2.66;100.00;98866.72;5215840;28;20105;-81
2021/12/29 00:34:11;;;;;;;8.13;4.63;;;;;;;2.70;100.00;98870.88;5228866;28;20473;-82
2021/12/29 00:36:41;;;;;;;9.48;5.05;;;;;;;2.70;100.00;98868.28;5229324;28;20032;-82
2021/12/29 00:39:12;;;;;;;9.32;4.63;;;;;;;2.66;100.00;98885.59;5229610;28;20111;-82
2021/12/29 00:41:42;;;;;;;8.57;4.38;;;;;;;2.58;100.00;98894.44;5217738;28;20085;-81
2021/12/29 00:44:12;;;;;;;9.65;4.60;;;;;;;2.60;100.00;98903.84;5226741;28;20036;-79
2021/12/29 00:46:43;;;;;;;10.55;4.30;;;;;;;2.68;100.00;98912.16;5229755;28;20029;-80
2021/12/29 00:49:14;;;;;;;7.57;4.13;;;;;;;2.73;100.00;98915.47;5229141;28;20063;-80
2021/12/29 00:51:44;;;;;;;6.97;4.30;;;;;;;2.78;100.00;98910.13;5228464;28;20024;-82
2021/12/29 00:54:15;;;;;;;7.20;4.03;;;;;;;2.83;100.00;98905.69;5226908;28;20039;-80
2021/12/29 00:56:45;;;;;;;9.63;4.35;;;;;;;2.91;100.00;98919.19;5235206;28;20028;-79
2021/12/29 00:59:15;;;;;;;8.00;4.18;;;;;;;2.92;100.00;98926.03;5217342;28;20024;-80
2021/12/29 01:01:47;;;;;;;6.95;4.32;;;;;;;2.97;100.00;98931.88;5224434;28;20021;-80
2021/12/29 01:04:18;;;;;;;8.85;4.05;;;;;;;3.02;100.00;98927.44;5249417;28;20044;-82
2021/12/29 01:06:49;;;;;;;9.75;4.60;;;;;;;3.04;100.00;98930.81;5229825;28;20222;-80
2021/12/29 01:09:19;;;;;;;8.43;4.40;;;;;;;3.04;100.00;98934.22;5221684;28;20477;-79
2021/12/29 01:11:49;;;;;;;11.25;4.93;;;;;;;3.00;100.00;98942.13;5218833;28;20117;-81
2021/12/29 01:14:22;;;;;;;8.82;4.10;;;;;;;3.04;100.00;98951.44;5248783;28;20083;-81
2021/12/29 01:16:53;;;;;;;8.27;4.30;;;;;;;3.15;100.00;98967.41;5241223;28;20027;-83
2021/12/29 01:19:29;;;;;;;8.85;3.95;;;;;;;3.19;100.00;98966.44;5244763;28;20036;-79
2021/12/29 01:22:01;;;;;;;9.45;4.30;;;;;;;3.27;100.00;98972.19;5247849;28;20035;-80
2021/12/29 01:24:31;;;;;;;9.20;4.22;;;;;;;3.30;100.00;98985.00;5249280;28;20110;-82
2021/12/29 01:27:02;;;;;;;9.88;4.20;;;;;;;3.31;100.00;98990.13;5229597;28;20088;-80
2021/12/29 01:29:32;;;;;;;7.43;4.03;;;;;;;3.31;100.00;98981.53;5229137;28;20461;-81
2021/12/29 01:32:03;;;;;;;10.90;4.25;;;;;;;3.35;100.00;98993.47;5227687;28;20306;-81
2021/12/29 01:34:34;;;;;;;10.65;4.63;;;;;;;3.21;100.00;98993.06;5229282;28;20024;-81
2021/12/29 01:37:04;;;;;;;10.68;3.75;;;;;;;3.08;100.00;98999.47;5228744;28;20016;-81
2021/12/29 01:39:34;;;;;;;8.43;3.72;;;;;;;3.13;100.00;99015.66;5228189;28;20039;-81
2021/12/29 01:42:05;;;;;;;9.95;4.28;;;;;;;3.10;100.00;99013.16;5246979;28;20044;-80
2021/12/29 01:44:36;;;;;;;8.00;4.45;;;;;;;3.11;100.00;99009.69;5247156;28;20086;-81
2021/12/29 01:47:06;;;;;;;13.88;4.63;;;;;;;3.04;100.00;99013.38;5245539;28;20035;-79
2021/12/29 01:49:38;;;;;;;9.52;4.70;;;;;;;3.16;100.00;99013.00;5238353;28;20028;-81
2021/12/29 01:52:13;;;;;;;11.98;4.32;;;;;;;3.24;100.00;99014.44;5227470;28;20078;-80
2021/12/29 01:54:43;;;;;;;9.35;4.72;;;;;;;3.45;100.00;99010.31;5228460;28;20392;-81
2021/12/29 01:57:14;;;;;;;12.00;5.20;;;;;;;3.74;100.00;99019.66;5242647;28;20032;-81
2021/12/29 01:59:44;;;;;;;14.38;5.32;;;;;;;3.92;100.00;99019.03;5243375;28;20035;-82
2021/12/29 02:02:15;;;;;;;12.57;6.07;;;;;;;4.05;100.00;99016.88;5227047;28;20432;-80
2021/12/29 02:04:47;;;;;;;14.63;5.93;;;;;;;4.11;100.00;99021.84;5246789;28;20028;-82
2021/12/29 02:07:17;;;;;;;13.38;6.10;;;;;;;4.18;100.00;99029.34;5247815;28;20032;-80
2021/12/29 02:09:48;;;;;;;13.48;7.00;;;;;;;4.31;100.00;99027.16;5228579;28;20107;-82
2021/12/29 02:12:19;;;;;;;14.43;8.07;;;;;;;4.37;100.00;99043.31;5230437;28;20026;-83
2021/12/29 02:14:49;;;;;;;17.50;9.13;;;;;;;4.35;100.00;99039.94;5230192;28;20474;-81
2021/12/29 02:17:20;;;;;;;16.05;8.40;;;;;;;4.38;100.00;99050.16;5247295;28;20046;-82
2021/12/29 02:19:51;;;;;;;13.48;7.20;;;;;;;4.41;100.00;99052.63;5245753;28;20046;-82
2021/12/29 02:27:49;;;;;;;10.55;5.72;;;;;;;4.39;100.00;99072.53;5248143;28;20035;-80
2021/12/29 02:30:23;;;;;;;8.82;4.63;;;;;;;4.39;100.00;99075.13;5246769;28;20076;-82
2021/12/29 02:32:55;;;;;;;10.10;5.28;;;;;;;4.47;100.00;99078.28;5225058;28;20115;-82
2021/12/29 02:35:26;;;;;;;16.95;5.80;;;;;;;4.37;100.00;99069.16;5248054;28;20027;-82
2021/12/29 02:37:58;;;;;;;11.25;4.78;;;;;;;4.28;100.00;99056.53;5246882;28;20024;-81
2021/12/29 02:40:29;;;;;;;10.95;4.47;;;;;;;4.16;100.00;99076.81;5242683;28;20450;-82
2021/12/29 02:42:59;;;;;;;8.77;4.22;;;;;;;4.10;100.00;99084.78;5228609;28;20024;-82
2021/12/29 02:45:33;;;;;;;9.18;3.63;;;;;;;4.06;100.00;99086.63;5229677;28;20039;-81
2021/12/29 02:48:04;;;;;;;9.30;4.47;;;;;;;4.09;100.00;99080.50;5229034;28;20474;-82
2021/12/29 02:50:35;;;;;;;9.52;4.53;;;;;;;3.99;100.00;99100.63;5246753;28;20028;-79
2021/12/29 02:53:05;;;;;;;10.45;4.22;;;;;;;3.94;100.00;99088.75;5245272;28;20020;-80
2021/12/29 02:55:35;;;;;;;9.10;4.60;;;;;;;3.93;100.00;99095.66;5227186;28;20021;-81
2021/12/29 02:58:06;;;;;;;6.65;3.70;;;;;;;3.93;100.00;99092.25;5226793;28;20402;-82
2021/12/29 03:00:36;;;;;;;10.52;4.57;;;;;;;3.92;100.00;99096.56;5222844;28;20486;-81
2021/12/29 03:03:14;;;;;;;10.23;5.03;;;;;;;3.91;100.00;99112.09;5221765;28;20490;-80
2021/12/29 03:05:45;;;;;;;14.63;4.70;;;;;;;3.89;100.00;99108.72;5212657;28;20029;-80
2021/12/29 03:08:17;;;;;;;9.70;4.82;;;;;;;3.99;100.00;99105.78;5229124;28;20446;-82
2021/12/29 03:10:52;;;;;;;9.43;4.65;;;;;;;3.80;100.00;99112.44;5229556;28;20025;-81
2021/12/29 03:13:24;;;;;;;7.63;4.53;;;;;;;3.76;100.00;99115.19;5246563;28;20412;-82
2021/12/29 03:15:56;;;;;;;7.18;3.85;;;;;;;3.73;100.00;99117.84;5246695;28;20713;-81
2021/12/29 03:18:26;;;;;;;11.52;4.82;;;;;;;3.73;100.00;99110.97;5246874;28;20111;-82
2021/12/29 03:20:57;;;;;;;9.35;4.70;;;;;;;3.66;100.00;99104.31;5247410;28;20470;-81
2021/12/29 03:23:27;;;;;;;12.73;4.35;;;;;;;3.69;100.00;99099.03;5228526;28;20025;-80
2021/12/29 03:25:58;;;;;;;8.98;3.78;;;;;;;3.68;100.00;99101.66;5227981;28;20521;-82
2021/12/29 03:28:29;;;;;;;8.40;4.03;;;;;;;3.66;100.00;99101.72;5218440;28;20534;-82
2021/12/29 03:30:59;;;;;;;11.20;4.25;;;;;;;3.68;100.00;99107.69;5228475;28;20025;-82
2021/12/29 03:33:30;;;;;;;9.15;4.43;;;;;;;3.62;100.00;99117.34;5240463;28;20036;-81
2021/12/29 03:36:02;;;;;;;8.50;4.30;;;;;;;3.59;100.00;99115.72;5213759;28;20055;-81
2021/12/29 03:38:36;;;;;;;7.85;4.10;;;;;;;3.58;100.00;99116.59;5236610;28;20383;-82
2021/12/29 03:41:12;;;;;;;9.18;4.60;;;;;;;3.56;100.00;99121.88;5239455;28;20025;-81
2021/12/29 03:43:44;;;;;;;8.48;4.18;;;;;;;3.58;100.00;99131.28;5236570;28;20036;-81
2021/12/29 03:46:15;;;;;;;7.75;4.07;;;;;;;3.59;100.00;99131.19;5222360;28;20028;-79
2021/12/29 03:48:47;;;;;;;8.30;4.80;;;;;;;3.71;100.00;99138.56;5217012;28;20036;-82
2021/12/29 03:51:17;;;;;;;14.20;6.07;;;;;;;3.97;100.00;99143.75;5224890;28;20111;-82
2021/12/29 03:53:48;;;;;;;11.18;5.22;;;;;;;3.96;100.00;99146.41;5224194;28;20161;-81
2021/12/29 03:56:18;;;;;;;12.15;6.55;;;;;;;4.05;100.00;99146.09;5224373;28;20029;-80
2021/12/29 03:58:48;;;;;;;18.60;7.03;;;;;;;4.22;100.00;99155.00;5241134;28;20036;-82
2021/12/29 04:01:20;;;;;;;17.58;7.18;;;;;;;4.27;100.00;99155.69;5234401;28;20056;-80
2021/12/29 04:03:51;;;;;;;18.90;8.00;;;;;;;4.33;100.00;99160.63;5221241;28;20029;-81
2021/12/29 04:06:21;;;;;;;14.88;7.95;;;;;;;4.37;100.00;99157.06;5223149;28;20126;-80
2021/12/29 04:08:52;;;;;;;17.10;7.13;;;;;;;4.38;100.00;99158.75;5221283;28;20047;-81
2021/12/29 04:11:22;;;;;;;19.95;8.02;;;;;;;4.37;100.00;99162.25;5235580;28;20449;-82
2021/12/29 04:13:52;;;;;;;14.77;7.72;;;;;;;4.34;100.00;99167.53;5214983;28;20143;-80
2021/12/29 04:16:23;;;;;;;14.90;8.18;;;;;;;4.38;100.00;99169.13;5242471;28;20031;-81
2021/12/29 04:21:59;;;;;;;22.67;10.13;;;;;;;4.51;100.00;99174.72;5174338;28;20527;-81
2021/12/29 04:24:29;;;;;;;24.85;11.13;;;;;;;4.64;100.00;99182.00;5234994;28;20036;-82
2021/12/29 04:27:00;;;;;;;26.15;10.93;;;;;;;4.67;100.00;99181.06;5216487;28;20152;-81
2021/12/29 04:29:30;;;;;;;27.05;11.48;;;;;;;4.69;100.00;99190.47;5217392;28;20088;-82
2021/12/29 04:32:00;;;;;;;23.35;11.35;;;;;;;4.74;100.00;99188.56;5241815;28;20066;-80
2021/12/29 04:34:31;;;;;;;24.00;11.43;;;;;;;4.74;100.00;99190.28;5218632;28;20345;-82
2021/12/29 04:37:01;;;;;;;28.02;10.75;;;;;;;4.73;100.00;99196.34;5249013;28;20123;-79
2021/12/29 04:39:31;;;;;;;23.35;11.40;;;;;;;4.81;100.00;99204.72;5223991;28;20032;-81
2021/12/29 04:42:02;;;;;;;24.85;11.70;;;;;;;4.86;100.00;99203.66;5227045;28;20037;-81
2021/12/29 04:44:32;;;;;;;27.20;12.80;;;;;;;4.92;100.00;99211.19;5231947;28;20089;-82
2021/12/29 04:47:03;;;;;;;25.67;12.30;;;;;;;4.95;100.00;99208.50;5240061;28;20047;-82
2021/12/29 04:49:40;;;;;;;25.75;12.02;;;;;;;4.94;100.00;99221.53;5223947;28;20048;-83
2021/12/29 04:52:13;;;;;;;25.83;12.15;;;;;;;4.96;100.00;99220.53;5226099;28;20400;-81
2021/12/29 04:54:43;;;;;;;27.52;12.85;;;;;;;5.00;100.00;99222.13;5222764;28;20032;-82
2021/12/29 04:57:15;;;;;;;28.25;11.52;;;;;;;4.97;100.00;99214.47;5231076;28;20029;-80
2021/12/29 04:59:45;;;;;;;28.63;11.80;;;;;;;4.98;100.00;99223.94;5221711;28;20116;-81
2021/12/29 05:02:15;;;;;;;23.98;10.95;;;;;;;5.04;100.00;99228.91;5220828;28;20096;-81
2021/12/29 05:04:55;;;;;;;25.48;11.68;;;;;;;4.96;100.00;99228.31;5226797;28;20025;-81
2021/12/29 05:10:14;;;;;;;22.85;10.75;;;;;;;4.94;100.00;99243.06;5232748;28;20079;-80
2021/12/29 05:12:44;;;;;;;25.08;11.05;;;;;;;4.87;100.00;99244.19;5210095;28;20026;-80
2021/12/29 05:15:15;;;;;;;24.38;10.63;;;;;;;4.88;100.00;99250.19;5217385;28;20399;-81
2021/12/29 05:17:45;;;;;;;24.10;10.57;;;;;;;4.89;100.00;99254.44;5242459;28;20053;-83
2021/12/29 05:20:15;;;;;;;27.70;12.55;;;;;;;4.90;100.00;99259.59;5243160;28;20075;-81
2021/12/29 05:22:45;;;;;;;26.15;12.07;;;;;;;4.93;100.00;99251.72;5239979;28;20025;-81
2021/12/29 05:25:16;;;;;;;27.98;12.73;;;;;;;5.00;100.00;99260.13;5235729;28;20098;-83
2021/12/29 05:27:47;;;;;;;29.25;12.48;;;;;;;5.00;100.00;99258.34;5214555;28;20041;-82
2021/12/29 05:30:18;;;;;;;26.25;11.43;;;;;;;5.00;100.00;99266.13;5244101;28;20276;-81
2021/12/29 05:32:48;;;;;;;27.33;11.57;;;;;;;5.06;100.00;99278.03;5223013;28;20029;-83
2021/12/29 05:35:19;;;;;;;23.15;10.50;;;;;;;5.08;100.00;99278.81;5243285;28;20028;-81
2021/12/29 05:37:49;;;;;;;25.20;10.52;;;;;;;5.17;100.00;99273.31;5232161;28;20094;-83
2021/12/29 05:40:19;;;;;;;24.38;10.73;;;;;;;5.17;100.00;99274.16;5222458;28;20039;-82
2021/12/29 05:42:50;;;;;;;23.52;10.70;;;;;;;5.18;100.00;99283.63;5248508;28;20050;-83
2021/12/29 05:45:20;;;;;;;20.65;9.55;;;;;;;5.22;100.00;99287.81;5246715;28;20107;-79
2021/12/29 05:47:51;;;;;;;18.40;9.13;;;;;;;5.22;100.00;99279.19;5226249;28;20063;-80
2021/12/29 05:50:24;;;;;;;20.77;9.77;;;;;;;5.24;100.00;99273.06;5232851;28;20563;-80
2021/12/29 05:52:55;;;;;;;23.65;9.57;;;;;;;5.25;100.00;99285.13;5216478;28;20040;-82
2021/12/29 05:55:27;;;;;;;21.70;10.00;;;;;;;5.33;100.00;99287.44;5224976;28;20539;-81
2021/12/29 05:57:58;;;;;;;24.38;10.65;;;;;;;5.37;100.00;99289.00;5226593;28;20044;-82
2021/12/29 06:00:28;;;;;;;21.25;10.23;;;;;;;5.38;100.00;99298.47;5221544;28;20066;-83
2021/12/29 06:02:58;;;;;;;20.90;9.88;;;;;;;5.37;100.00;99305.41;5236721;28;20032;-82
2021/12/29 06:05:29;;;;;;;17.65;8.55;;;;;;;5.34;100.00;99305.50;5220789;28;20090;-81
2021/12/29 06:07:59;;;;;;;23.33;10.23;;;;;;;5.43;100.00;99311.19;5211199;28;20486;-82
2021/12/29 06:10:30;;;;;;;22.80;10.32;;;;;;;5.40;100.00;99311.31;5216871;28;20020;-81
2021/12/29 06:13:00;;;;;;;20.90;9.35;;;;;;;5.40;100.00;99310.47;5232018;28;20063;-80
2021/12/29 06:15:30;;;;;;;23.55;10.00;;;;;;;5.46;100.00;99318.88;5219400;28;20032;-81
2021/12/29 06:18:01;;;;;;;22.55;9.27;;;;;;;5.47;100.00;99320.56;5232782;28;20105;-80
2021/12/29 06:20:32;;;;;;;27.48;10.65;;;;;;;5.48;100.00;99329.19;5219261;28;20040;-81
2021/12/29 06:23:02;;;;;;;27.88;11.02;;;;;;;5.45;100.00;99329.28;5218469;28;20512;-82
2021/12/29 06:25:33;;;;;;;24.10;11.10;;;;;;;5.61;100.00;99330.44;5230905;28;20025;-82
2021/12/29 06:28:03;;;;;;;26.27;11.10;;;;;;;5.53;100.00;99332.44;5223644;28;20024;-82
2021/12/29 06:30:34;;;;;;;24.42;10.52;;;;;;;5.48;100.00;99327.44;5243201;28;20402;-82
2021/12/29 06:33:04;;;;;;;35.70;13.68;;;;;;;5.55;100.00;99336.69;5225267;28;20047;-82
2021/12/29 06:35:35;;;;;;;31.85;11.90;;;;;;;5.50;100.00;99342.91;5233164;28;20032;-82
2021/12/29 06:38:05;;;;;;;32.28;12.38;;;;;;;5.49;100.00;99336.91;5235164;28;20025;-82
2021/12/29 06:40:35;;;;;;;27.88;11.23;;;;;;;5.65;100.00;99344.97;5220663;28;20021;-82
2021/12/29 06:43:06;;;;;;;24.55;10.38;;;;;;;5.60;100.00;99346.88;5227044;28;20024;-82
2021/12/29 06:45:36;;;;;;;26.75;10.70;;;;;;;5.63;100.00;99355.41;5219915;28;20088;-82
2021/12/29 06:48:07;;;;;;;23.58;10.38;;;;;;;5.75;100.00;99356.72;5224520;28;20036;-82
2021/12/29 06:50:37;;;;;;;24.48;10.38;;;;;;;5.71;100.00;99366.34;5225247;28;20103;-82
2021/12/29 06:53:07;;;;;;;27.25;10.90;;;;;;;5.72;100.00;99374.97;5219548;28;20115;-82
2021/12/29 06:55:39;;;;;;;29.02;11.20;;;;;;;5.85;100.00;99374.50;5234203;28;20029;-82
2021/12/29 06:58:10;;;;;;;27.33;10.60;;;;;;;5.86;100.00;99377.94;5233374;28;20029;-82
2021/12/29 07:00:41;;;;;;;27.30;10.82;;;;;;;6.01;100.00;99377.38;5219156;28;20027;-81
2021/12/29 07:03:11;;;;;;;27.08;10.80;;;;;;;6.00;100.00;99391.25;5212945;28;20032;-81
2021/12/29 07:05:41;;;;;;;24.50;10.23;;;;;;;5.93;100.00;99397.56;5240934;28;20390;-82
2021/12/29 07:08:13;;;;;;;29.15;11.68;;;;;;;5.85;100.00;99403.03;5232102;28;20104;-82
2021/12/29 07:10:45;;;;;;;32.53;11.73;;;;;;;5.98;100.00;99416.38;5217935;28;20449;-82
2021/12/29 07:13:15;;;;;;;27.80;11.88;;;;;;;5.91;100.00;99413.16;5232549;28;20051;-82
2021/12/29 07:15:45;;;;;;;25.55;10.50;;;;;;;6.05;100.00;99423.06;5214945;28;20029;-82
2021/12/29 07:18:16;;;;;;;36.78;17.17;;;;;;;5.95;100.00;99422.50;5233628;28;20064;-82
2021/12/29 07:20:46;;;;;;;33.35;16.67;;;;;;;6.07;100.00;99434.22;5218056;28;20020;-81
2021/12/29 07:23:16;;;;;;;54.28;30.27;;;;;;;5.97;100.00;99430.25;5233567;28;20024;-81
2021/12/29 07:25:47;;;;;;;38.45;24.77;;;;;;;6.03;100.00;99436.06;5226025;28;20040;-82
2021/12/29 07:28:17;;;;;;;34.22;19.10;;;;;;;5.91;100.00;99444.28;5230768;28;20035;-81
2021/12/29 07:30:47;;;;;;;30.75;15.95;;;;;;;5.93;100.00;99459.78;5227321;28;20013;-82
2021/12/29 07:33:18;;;;;;;27.58;12.25;;;;;;;5.96;100.00;99460.53;5225698;28;20021;-82
2021/12/29 07:35:48;;;;;;;28.27;15.82;;;;;;;5.95;100.00;99466.59;5245163;28;20102;-82
2021/12/29 07:38:19;;;;;;;25.17;12.95;;;;;;;5.90;100.00;99465.09;5241831;28;20020;-82
2021/12/29 07:40:49;;;;;;;24.85;13.30;;;;;;;5.99;100.00;99468.19;5224206;28;20495;-82
2021/12/29 07:43:20;;;;;;;22.85;10.90;;;;;;;5.98;100.00;99478.63;5237310;28;20070;-82
2021/12/29 07:45:53;;;;;;;27.83;13.07;;;;;;;5.93;100.00;99490.91;5240747;28;20020;-82
2021/12/29 07:48:28;;;;;;;28.00;11.23;;;;;;;6.02;100.00;99485.38;5226478;28;20024;-82
2021/12/29 07:51:03;;;;;;;27.20;11.95;;;;;;;6.15;100.00;99482.31;5222834;28;20498;-81
2021/12/29 07:53:37;;;;;;;26.48;12.05;;;;;;;6.11;100.00;99487.66;5220943;28;20052;-82
2021/12/29 07:56:09;;;;;;;25.65;10.77;;;;;;;5.95;100.00;99489.09;5224667;28;20033;-82
2021/12/29 07:58:39;;;;;;;23.17;11.68;;;;;;;6.03;100.00;99494.84;5221324;28;20036;-82
2021/12/29 08:01:10;;;;;;;29.65;14.13;;;;;;;6.07;100.00;99496.47;5228483;28;20116;-82
2021/12/29 08:03:40;;;;;;;25.80;12.68;;;;;;;6.03;100.00;99500.03;5243938;28;20139;-82
2021/12/29 08:06:11;;;;;;;23.42;10.80;;;;;;;6.12;100.00;99502.31;5223025;28;20032;-82
2021/12/29 08:08:41;;;;;;;22.88;11.68;;;;;;;6.01;100.00;99505.28;5222356;28;20439;-82
2021/12/29 08:11:12;;;;;;;24.27;10.40;;;;;;;6.10;100.00;99517.09;5222047;28;20029;-82
2021/12/29 08:13:42;;;;;;;24.90;10.75;;;;;;;6.06;100.00;99511.16;5236876;28;20108;-82
2021/12/29 08:16:12;;;;;;;22.10;9.23;;;;;;;6.12;100.00;99521.31;5222619;28;20017;-82
2021/12/29 08:18:43;;;;;;;20.05;9.38;;;;;;;6.07;100.00;99530.16;5220496;28;20032;-82
2021/12/29 08:21:13;;;;;;;21.83;9.70;;;;;;;6.07;100.00;99535.34;5222734;28;20025;-81
2021/12/29 08:23:43;;;;;;;20.52;9.65;;;;;;;6.04;100.00;99532.84;5220252;28;20030;-82
2021/12/29 08:26:13;;;;;;;19.63;9.40;;;;;;;6.02;100.00;99537.25;5215524;28;20025;-82
2021/12/29 08:28:44;;;;;;;20.98;10.02;;;;;;;5.99;100.00;99545.13;5218321;28;20398;-82
2021/12/29 08:31:14;;;;;;;22.17;9.73;;;;;;;6.11;100.00;99540.38;5217370;28;20024;-82
2021/12/29 08:33:44;;;;;;;19.67;9.75;;;;;;;6.08;100.00;99548.25;5214831;28;20051;-82
2021/12/29 08:36:15;;;;;;;21.10;9.82;;;;;;;6.08;100.00;99550.00;5238196;28;20078;-82
2021/12/29 08:38:45;;;;;;;22.33;9.27;;;;;;;6.02;100.00;99547.59;5237435;28;20020;-82
2021/12/29 08:41:16;;;;;;;22.05;9.93;;;;;;;6.05;100.00;99555.31;5239162;28;20249;-82
2021/12/29 08:43:47;;;;;;;21.38;9.32;;;;;;;6.07;100.00;99548.31;5225115;28;20096;-82
2021/12/29 08:46:20;;;;;;;19.55;10.40;;;;;;;6.13;100.00;99553.28;5228462;28;20052;-82
2021/12/29 08:48:50;;;;;;;19.48;9.52;;;;;;;6.09;100.00;99557.72;5243038;28;20032;-82
2021/12/29 08:51:21;;;;;;;19.60;9.07;;;;;;;6.08;100.00;99562.97;5226339;28;20027;-82
2021/12/29 08:53:52;;;;;;;23.10;10.70;;;;;;;6.21;100.00;99559.03;5238541;28;20096;-83
2021/12/29 08:56:24;;;;;;;16.98;9.00;;;;;;;6.14;100.00;99562.75;5239148;28;20016;-82
2021/12/29 08:58:54;;;;;;;19.50;9.13;;;;;;;6.12;100.00;99561.97;5223581;28;20050;-83
2021/12/29 09:01:25;;;;;;;21.35;9.82;;;;;;;6.14;100.00;99558.44;5226230;28;20017;-82
2021/12/29 09:03:56;;;;;;;23.50;10.43;;;;;;;6.19;100.00;99568.63;5242980;28;20509;-82
2021/12/29 09:06:26;;;;;;;18.67;7.93;;;;;;;6.41;100.00;99561.81;5223270;28;20123;-82
2021/12/29 09:08:56;;;;;;;20.63;11.07;;;;;;;6.31;100.00;99563.03;5237021;28;20121;-82
2021/12/29 09:11:29;;;;;;;18.90;9.70;;;;;;;6.20;100.00;99566.00;5223465;28;20012;-83
2021/12/29 09:14:00;;;;;;;19.10;9.48;;;;;;;6.21;100.00;99570.28;5219992;28;20052;-83
2021/12/29 09:16:30;;;;;;;18.33;8.68;;;;;;;6.26;100.00;99570.13;5223601;28;20056;-82
2021/12/29 09:19:01;;;;;;;20.00;8.45;;;;;;;6.48;100.00;99576.25;5235532;28;20039;-80
2021/12/29 09:21:33;;;;;;;17.95;7.90;;;;;;;6.43;100.00;99570.41;5218722;28;20032;-81
2021/12/29 09:24:05;;;;;;;19.20;10.95;;;;;;;6.45;100.00;99572.03;5217299;28;20117;-81
2021/12/29 09:26:35;;;;;;;21.77;11.68;;;;;;;6.55;100.00;99580.31;5234554;28;20294;-81
2021/12/29 09:29:06;;;;;;;22.90;14.02;;;;;;;6.53;100.00;99580.41;5222353;28;20028;-80
2021/12/29 09:31:36;;;;;;;26.92;14.90;;;;;;;6.50;100.00;99585.69;5233672;28;20033;-81
2021/12/29 09:34:07;;;;;;;23.38;12.13;;;;;;;6.61;100.00;99587.91;5220047;28;20440;-80
2021/12/29 09:36:37;;;;;;;33.40;15.57;;;;;;;6.50;100.00;99584.84;5222396;28;20471;-81
2021/12/29 09:39:07;;;;;;;16.95;10.32;;;;;;;6.67;100.00;99591.16;5221904;28;20038;-82
2021/12/29 09:41:38;;;;;;;21.70;12.60;;;;;;;6.56;100.00;99590.66;5238006;28;20552;-80
2021/12/29 09:44:10;;;;;;;15.48;7.72;;;;;;;6.62;100.00;99592.22;5221725;28;20108;-80
2021/12/29 09:46:41;;;;;;;15.75;9.93;;;;;;;6.54;100.00;99592.47;5233626;28;20020;-81
2021/12/29 09:49:11;;;;;;;14.50;8.07;;;;;;;6.58;100.00;99595.81;5221152;28;20032;-82
2021/12/29 09:51:41;;;;;;;12.48;6.38;;;;;;;6.64;100.00;99600.78;5223756;28;20024;-81
2021/12/29 09:54:12;;;;;;;13.02;8.40;;;;;;;6.68;100.00;99605.81;5225141;28;20367;-81
2021/12/29 09:56:43;;;;;;;12.70;6.65;;;;;;;6.72;100.00;99616.91;5224981;28;20028;-80
2021/12/29 09:59:13;;;;;;;13.70;8.18;;;;;;;6.76;100.00;99608.16;5226314;28;20233;-81
2021/12/29 10:01:44;;;;;;;12.95;8.48;;;;;;;6.89;100.00;99612.84;5238548;28;20605;-82
2021/12/29 10:04:15;;;;;;;12.32;8.13;;;;;;;6.94;100.00;99607.47;5244709;28;20039;-80
2021/12/29 10:06:45;;;;;;;11.35;6.82;;;;;;;6.98;100.00;99611.66;5223162;28;20115;-81
2021/12/29 10:09:18;;;;;;;10.32;6.40;;;;;;;7.05;100.00;99615.72;5236725;28;20055;-80
2021/12/29 10:11:48;;;;;;;10.30;5.93;;;;;;;7.07;100.00;99613.94;5221995;28;20390;-81
2021/12/29 10:14:18;;;;;;;8.98;6.03;;;;;;;7.11;100.00;99610.31;5237537;28;20020;-80
2021/12/29 10:16:49;;;;;;;9.07;5.70;;;;;;;7.12;100.00;99612.00;5221474;28;20386;-81
2021/12/29 10:19:20;;;;;;;11.32;5.63;;;;;;;7.14;100.00;99610.19;5216950;28;20021;-80
2021/12/29 10:21:50;;;;;;;9.00;6.10;;;;;;;7.14;100.00;99620.56;5220000;28;20040;-81
2021/12/29 10:24:22;;;;;;;9.57;6.47;;;;;;;7.16;100.00;99618.75;5236320;28;20028;-81
2021/12/29 10:26:56;;;;;;;8.40;5.72;;;;;;;7.24;100.00;99617.56;5237510;28;20024;-81
2021/12/29 10:29:27;;;;;;;11.32;6.68;;;;;;;7.29;100.00;99621.72;5216467;28;20028;-81
2021/12/29 10:32:04;;;;;;;16.48;11.60;;;;;;;7.27;100.00;99622.66;5220714;28;20528;-80
2021/12/29 10:34:34;;;;;;;12.80;8.20;;;;;;;7.34;100.00;99629.34;5221806;28;20036;-81
2021/12/29 10:37:07;;;;;;;10.32;6.80;;;;;;;7.27;100.00;99637.41;5239010;28;20039;-82
2021/12/29 10:39:43;;;;;;;9.80;6.30;;;;;;;7.25;100.00;99637.47;5234958;28;20024;-80
2021/12/29 10:42:18;;;;;;;9.88;6.47;;;;;;;7.33;100.00;99649.25;5231409;28;20509;-81
2021/12/29 10:44:49;;;;;;;13.93;6.83;;;;;;;7.40;100.00;99650.75;5220430;28;20042;-80
2021/12/29 10:47:34;;;;;;;11.60;6.65;;;;;;;7.27;100.00;99637.41;5235970;28;20040;-80
2021/12/29 10:50:12;;;;;;;11.30;6.78;;;;;;;7.15;100.00;99653.44;5235477;28;20035;-80
2021/12/29 10:52:45;;;;;;;12.75;5.80;;;;;;;7.28;100.00;99656.38;5215330;28;20013;-81
2021/12/29 10:55:31;;;;;;;17.27;10.32;;;;;;;7.20;100.00;99656.72;5219472;28;20085;-81
2021/12/29 10:58:09;;;;;;;15.88;9.27;;;;;;;7.26;100.00;99662.53;5236829;28;20036;-81
2021/12/29 11:00:46;;;;;;;14.85;8.57;;;;;;;7.29;100.00;99668.47;5215010;28;20028;-81
2021/12/29 11:03:19;;;;;;;14.18;7.60;;;;;;;7.53;100.00;99657.16;5221855;28;20028;-80
2021/12/29 11:05:58;;;;;;;18.17;11.35;;;;;;;7.57;100.00;99657.88;5221715;28;20107;-80
2021/12/29 11:08:31;;;;;;;17.30;8.95;;;;;;;7.61;100.00;99665.53;5236778;28;20035;-80
2021/12/29 11:11:05;;;;;;;16.20;7.85;;;;;;;7.44;100.00;99667.91;5216628;28;20025;-81
2021/12/29 11:13:35;;;;;;;11.57;6.80;;;;;;;7.43;100.00;99676.63;5212506;28;20565;-81
2021/12/29 11:16:09;;;;;;;13.30;7.28;;;;;;;7.52;100.00;99668.47;5213245;28;20040;-82
2021/12/29 11:18:47;;;;;;;15.20;7.93;;;;;;;7.59;100.00;99662.13;5227898;28;20031;-80
2021/12/29 11:21:26;;;;;;;13.85;7.88;;;;;;;7.61;100.00;99669.88;5214861;28;20033;-83
2021/12/29 11:23:56;;;;;;;13.45;7.20;;;;;;;7.61;100.00;99675.06;5237448;28;20086;-80
2021/12/29 11:26:32;;;;;;;11.02;6.80;;;;;;;7.67;100.00;99670.47;5216703;28;20499;-80
2021/12/29 11:29:10;;;;;;;11.35;6.88;;;;;;;7.72;100.00;99675.50;5214151;28;20025;-79
2021/12/29 11:31:47;;;;;;;14.80;9.25;;;;;;;7.79;100.00;99675.22;5234051;28;20520;-82
2021/12/29 11:34:26;;;;;;;12.45;6.43;;;;;;;7.82;100.00;99677.69;5225582;28;20482;-80
2021/12/29 11:37:09;;;;;;;12.90;7.93;;;;;;;7.73;100.00;99672.84;5220651;28;20402;-81
2021/12/29 11:39:43;;;;;;;8.40;5.32;;;;;;;7.70;100.00;99659.94;5229734;28;20186;-81
2021/12/29 11:42:13;;;;;;;10.02;6.25;;;;;;;7.61;100.00;99670.72;5237339;28;20020;-80
2021/12/29 11:44:44;;;;;;;8.48;4.72;;;;;;;7.62;100.00;99658.56;5220817;28;20074;-81
2021/12/29 11:47:17;;;;;;;9.68;5.03;;;;;;;7.63;100.00;99657.66;5233883;28;20074;-82
2021/12/29 11:49:47;;;;;;;10.88;6.15;;;;;;;7.78;100.00;99657.91;5215443;28;20025;-81
2021/12/29 11:52:28;;;;;;;13.15;7.13;;;;;;;7.64;100.00;99655.00;5218645;28;20114;-81
2021/12/29 11:55:04;;;;;;;9.35;5.78;;;;;;;7.62;100.00;99656.81;5241471;28;20029;-81